LEMG METAR and TAF | Updated Today

LEMG METAR

Málaga Airport

Observation time: 16 min. ago

LEMG 260200Z 28012KT CAVOK 24/10 Q1009 NOSIG

Need help? Read our tutorial on how to read METARs or read the parsed version below.

Málaga Airport (LEMG) METAR

  • Weather conditions on Sun, 26 Jun 2022 02:00:00 +0000 (16 min. ago):
  • Present conditions: Dry
  • Clouds: Clear skies
  • Visibility: Greater than 10 km
  • Wind: 280 degrees at 12 knots
  • Temperature: 24 celsius
  • Dew point: 10 celsius
  • Pressure: 1009 millibars
  • Remarks: None


Useful to know...

LEMG TAF

Málaga Airport

TAF LEMG 252300Z 2600/2624 29011KT CAVOK TX31/2614Z TN23/2606Z BECMG 2611/2613 19008KT BECMG 2618/2620 28007KT
Observation time: 3:16 hr. ago
Need help? Read our tutorial on how to read TAFs or read the parsed version below.

Parsed version of TAF for Málaga Airport (LEMG)

  • From 26 June at 00:00 UTC, to day 26 of the month at 24:00 UTC
  • Visibility: Greater than 10 km
  • Wind: 290 degrees at 11
  • Expected to arise soon, from 26 June at 11:00 UTC, to day 26 of the month at 13:00 UTC
  • Wind: 190 degrees at 8
  • Expected to arise soon, from 26 June at 18:00 UTC, to day 26 of the month at 20:00 UTC
  • Wind: 280 degrees at 7

Airports near LEMG

No airports found within 100nm radius.